createdAt,value
2023-02-17T00:11:42.079Z,673.41937
2023-02-17T00:26:44.335Z,417.49832
2023-02-17T00:41:46.602Z,225.55754
2023-02-17T00:56:48.876Z,74.82438
2023-02-17T01:11:51.146Z,28.19469
2023-02-17T01:26:53.399Z,3.25323
2023-02-17T01:41:55.735Z,0
2023-02-17T01:56:57.977Z,0
2023-02-17T02:12:00.279Z,0
2023-02-17T02:27:02.569Z,0
2023-02-17T02:42:04.808Z,0
2023-02-17T02:57:07.288Z,0
2023-02-17T03:12:09.493Z,0
2023-02-17T03:27:11.731Z,0
2023-02-17T03:42:13.946Z,0
2023-02-17T03:57:16.210Z,0
2023-02-17T04:12:18.427Z,0
2023-02-17T04:27:20.688Z,0
2023-02-17T04:42:23.192Z,0
2023-02-17T04:57:25.467Z,0
2023-02-17T05:12:27.798Z,0
2023-02-17T05:27:30.159Z,0
2023-02-17T05:42:32.547Z,0
2023-02-17T05:57:34.796Z,0
2023-02-17T06:12:37.041Z,0
2023-02-17T06:27:39.344Z,0
2023-02-17T06:42:41.694Z,0
2023-02-17T06:57:44.001Z,0
2023-02-17T07:12:46.280Z,0
2023-02-17T07:27:48.507Z,0
2023-02-17T07:42:50.815Z,0
2023-02-17T07:57:53.109Z,0
2023-02-17T08:12:55.348Z,0
2023-02-17T08:27:57.553Z,0
2023-02-17T08:43:01.201Z,0
2023-02-17T08:58:05.402Z,0
2023-02-17T09:13:07.821Z,0
2023-02-17T09:28:10.145Z,0
2023-02-17T09:43:12.419Z,0
2023-02-17T09:58:14.723Z,0
2023-02-17T10:13:16.951Z,0
2023-02-17T10:28:19.324Z,0
2023-02-17T10:43:21.575Z,0
2023-02-17T10:58:24.043Z,0
2023-02-17T11:13:26.242Z,0
2023-02-17T11:28:28.504Z,0
2023-02-17T11:43:30.757Z,0
2023-02-17T11:58:33.048Z,0
2023-02-17T12:13:35.373Z,0
2023-02-17T12:28:37.623Z,0
2023-02-17T12:43:39.846Z,0
2023-02-17T12:58:42.107Z,0
2023-02-17T13:13:44.304Z,0
2023-02-17T13:28:46.512Z,0
2023-02-17T13:43:48.778Z,0
2023-02-17T13:58:51.142Z,0
2023-02-17T14:13:53.396Z,0
2023-02-17T14:28:55.888Z,0
2023-02-17T14:43:58.107Z,4.33765
2023-02-17T14:59:00.346Z,26.02587
2023-02-17T15:14:02.517Z,74.82438
2023-02-17T15:29:04.716Z,166.99933
2023-02-17T15:44:08.099Z,267.84958
2023-02-17T15:59:10.688Z,441.35538
2023-02-17T16:14:12.974Z,661.49084
2023-02-17T16:29:15.165Z,948.85986
2023-02-17T16:44:17.395Z,1257.91711
2023-02-17T16:59:19.628Z,1903.14172
2023-02-17T17:14:22.070Z,1840.24597
2023-02-17T17:29:24.337Z,2627.52856
2023-02-17T17:44:26.554Z,1969.29089
2023-02-17T17:59:28.809Z,3023.33862
2023-02-17T18:14:31.225Z,3858.33521
2023-02-17T18:29:33.513Z,4638.02686
2023-02-17T18:44:35.812Z,5493.62744
2023-02-17T18:59:38.002Z,4458.01465
2023-02-17T19:14:40.210Z,5632.43213
2023-02-17T19:29:42.502Z,6336.21484
2023-02-17T19:44:44.881Z,3291.18823
2023-02-17T19:59:47.154Z,2563.54834
2023-02-17T20:14:49.402Z,2817.30054
2023-02-17T20:29:51.747Z,3303.1167
2023-02-17T20:44:54.159Z,3231.54565
2023-02-17T20:59:56.437Z,3071.05273
2023-02-17T21:14:58.705Z,2677.41138
2023-02-17T21:30:01.142Z,2407.39307
2023-02-17T21:45:03.471Z,6475.01953
2023-02-17T22:00:05.740Z,6036.91748
2023-02-17T22:15:08.199Z,2454.02271
2023-02-17T22:30:10.493Z,2881.28076
2023-02-17T22:45:12.881Z,2090.74487
2023-02-17T23:00:15.245Z,2020.25818
2023-02-17T23:15:17.511Z,1288.28064
2023-02-17T23:30:19.870Z,1264.42358
2023-02-17T23:45:22.192Z,1155.98242
